sensor_id;sensor_type;location;lat;lon;timestamp;temperature;humidity
17795;DHT22;9021;50.882;4.326;2022-11-20T00:00:48;6.20;99.90
17795;DHT22;9021;50.882;4.326;2022-11-20T00:03:14;6.30;99.90
17795;DHT22;9021;50.882;4.326;2022-11-20T00:05:39;6.30;99.90
17795;DHT22;9021;50.882;4.326;2022-11-20T00:08:05;6.20;99.90
17795;DHT22;9021;50.882;4.326;2022-11-20T00:10:30;6.30;99.90
17795;DHT22;9021;50.882;4.326;2022-11-20T00:12:58;6.30;99.90
17795;DHT22;9021;50.882;4.326;2022-11-20T00:15:24;6.40;99.90
17795;DHT22;9021;50.882;4.326;2022-11-20T00:17:49;6.10;99.90
17795;DHT22;9021;50.882;4.326;2022-11-20T00:20:15;6.20;99.90
17795;DHT22;9021;50.882;4.326;2022-11-20T00:22:41;6.30;99.90
17795;DHT22;9021;50.882;4.326;2022-11-20T00:25:07;6.30;99.90
17795;DHT22;9021;50.882;4.326;2022-11-20T00:27:32;6.30;99.90
17795;DHT22;9021;50.882;4.326;2022-11-20T00:29:58;6.30;99.90
17795;DHT22;9021;50.882;4.326;2022-11-20T00:32:24;6.30;99.90
17795;DHT22;9021;50.882;4.326;2022-11-20T00:34:49;6.40;99.90
17795;DHT22;9021;50.882;4.326;2022-11-20T00:37:15;6.40;99.90
17795;DHT22;9021;50.882;4.326;2022-11-20T00:39:40;6.30;99.90
17795;DHT22;9021;50.882;4.326;2022-11-20T00:42:06;6.40;99.90
17795;DHT22;9021;50.882;4.326;2022-11-20T00:44:32;6.40;99.90
17795;DHT22;9021;50.882;4.326;2022-11-20T00:46:57;6.40;99.90
17795;DHT22;9021;50.882;4.326;2022-11-20T00:49:23;6.40;99.90
17795;DHT22;9021;50.882;4.326;2022-11-20T00:51:48;6.40;99.90
17795;DHT22;9021;50.882;4.326;2022-11-20T00:54:14;6.30;99.90
17795;DHT22;9021;50.882;4.326;2022-11-20T00:56:40;6.30;99.90
17795;DHT22;9021;50.882;4.326;2022-11-20T00:59:05;6.30;99.90
17795;DHT22;9021;50.882;4.326;2022-11-20T01:01:31;6.30;99.90
17795;DHT22;9021;50.882;4.326;2022-11-20T01:03:58;6.20;99.90
17795;DHT22;9021;50.882;4.326;2022-11-20T01:06:32;6.10;99.90
17795;DHT22;9021;50.882;4.326;2022-11-20T01:09:01;6.10;99.90
17795;DHT22;9021;50.882;4.326;2022-11-20T01:11:32;6.10;99.90
17795;DHT22;9021;50.882;4.326;2022-11-20T01:13:59;6.20;99.90
17795;DHT22;9021;50.882;4.326;2022-11-20T01:16:29;6.20;99.90
17795;DHT22;9021;50.882;4.326;2022-11-20T01:18:57;6.20;99.90
17795;DHT22;9021;50.882;4.326;2022-11-20T01:21:38;6.10;99.90
17795;DHT22;9021;50.882;4.326;2022-11-20T01:24:05;6.20;99.90
17795;DHT22;9021;50.882;4.326;2022-11-20T01:26:34;6.20;99.90
17795;DHT22;9021;50.882;4.326;2022-11-20T01:29:01;6.20;99.90
17795;DHT22;9021;50.882;4.326;2022-11-20T01:31:29;6.20;99.90
17795;DHT22;9021;50.882;4.326;2022-11-20T01:33:57;6.20;99.90
17795;DHT22;9021;50.882;4.326;2022-11-20T01:36:26;6.30;99.90
17795;DHT22;9021;50.882;4.326;2022-11-20T01:38:53;6.40;99.90
17795;DHT22;9021;50.882;4.326;2022-11-20T01:41:20;6.40;99.90
17795;DHT22;9021;50.882;4.326;2022-11-20T01:44:05;6.30;99.90
17795;DHT22;9021;50.882;4.326;2022-11-20T01:46:32;6.30;99.90
17795;DHT22;9021;50.882;4.326;2022-11-20T01:52:03;6.40;99.90
17795;DHT22;9021;50.882;4.326;2022-11-20T01:55:16;6.50;99.90
17795;DHT22;9021;50.882;4.326;2022-11-20T01:57:34;6.50;99.90
17795;DHT22;9021;50.882;4.326;2022-11-20T02:00:07;6.50;99.90
17795;DHT22;9021;50.882;4.326;2022-11-20T02:02:34;6.40;99.90
17795;DHT22;9021;50.882;4.326;2022-11-20T02:05:19;6.50;99.90
17795;DHT22;9021;50.882;4.326;2022-11-20T02:07:47;6.50;99.90
17795;DHT22;9021;50.882;4.326;2022-11-20T02:10:15;6.50;99.90
17795;DHT22;9021;50.882;4.326;2022-11-20T02:12:40;6.50;99.90
17795;DHT22;9021;50.882;4.326;2022-11-20T02:15:25;6.50;99.90
17795;DHT22;9021;50.882;4.326;2022-11-20T02:17:51;6.50;99.90
17795;DHT22;9021;50.882;4.326;2022-11-20T02:20:16;6.50;99.90
17795;DHT22;9021;50.882;4.326;2022-11-20T02:22:53;6.50;99.90
17795;DHT22;9021;50.882;4.326;2022-11-20T02:25:20;6.50;99.90
17795;DHT22;9021;50.882;4.326;2022-11-20T02:27:46;6.40;99.90
17795;DHT22;9021;50.882;4.326;2022-11-20T02:30:12;6.40;99.90
17795;DHT22;9021;50.882;4.326;2022-11-20T02:32:39;6.40;99.90
17795;DHT22;9021;50.882;4.326;2022-11-20T02:35:10;6.40;99.90
17795;DHT22;9021;50.882;4.326;2022-11-20T02:37:57;6.40;99.90
17795;DHT22;9021;50.882;4.326;2022-11-20T02:40:23;6.60;99.90
17795;DHT22;9021;50.882;4.326;2022-11-20T02:42:53;6.50;99.90
17795;DHT22;9021;50.882;4.326;2022-11-20T02:45:19;6.60;99.90
17795;DHT22;9021;50.882;4.326;2022-11-20T02:47:44;6.70;99.90
17795;DHT22;9021;50.882;4.326;2022-11-20T02:50:10;6.60;99.90
17795;DHT22;9021;50.882;4.326;2022-11-20T02:52:36;6.70;99.90
17795;DHT22;9021;50.882;4.326;2022-11-20T02:55:01;6.70;99.90
17795;DHT22;9021;50.882;4.326;2022-11-20T02:57:27;6.70;99.90
17795;DHT22;9021;50.882;4.326;2022-11-20T02:59:53;6.70;99.90
17795;DHT22;9021;50.882;4.326;2022-11-20T03:02:19;6.70;99.90
17795;DHT22;9021;50.882;4.326;2022-11-20T03:04:44;6.70;99.90
17795;DHT22;9021;50.882;4.326;2022-11-20T03:07:10;6.60;99.90
17795;DHT22;9021;50.882;4.326;2022-11-20T03:09:36;6.60;99.90
17795;DHT22;9021;50.882;4.326;2022-11-20T03:12:01;6.60;99.90
17795;DHT22;9021;50.882;4.326;2022-11-20T03:14:27;6.50;99.90
17795;DHT22;9021;50.882;4.326;2022-11-20T03:16:52;6.50;99.90
17795;DHT22;9021;50.882;4.326;2022-11-20T03:19:18;6.60;99.90
17795;DHT22;9021;50.882;4.326;2022-11-20T03:21:43;6.60;99.90
17795;DHT22;9021;50.882;4.326;2022-11-20T03:24:09;6.50;99.90
17795;DHT22;9021;50.882;4.326;2022-11-20T03:26:35;6.50;99.90
17795;DHT22;9021;50.882;4.326;2022-11-20T03:29:02;6.50;99.90
17795;DHT22;9021;50.882;4.326;2022-11-20T03:31:34;6.50;99.90
17795;DHT22;9021;50.882;4.326;2022-11-20T03:34:01;6.50;99.90
17795;DHT22;9021;50.882;4.326;2022-11-20T03:36:26;6.40;99.90
17795;DHT22;9021;50.882;4.326;2022-11-20T03:38:54;6.40;99.90
17795;DHT22;9021;50.882;4.326;2022-11-20T03:41:23;6.30;99.90
17795;DHT22;9021;50.882;4.326;2022-11-20T03:43:49;6.40;99.90
17795;DHT22;9021;50.882;4.326;2022-11-20T03:46:16;6.40;99.90
17795;DHT22;9021;50.882;4.326;2022-11-20T03:48:41;6.40;99.90
17795;DHT22;9021;50.882;4.326;2022-11-20T03:51:16;6.40;99.90
17795;DHT22;9021;50.882;4.326;2022-11-20T03:53:43;6.30;99.90
17795;DHT22;9021;50.882;4.326;2022-11-20T03:56:09;6.10;99.90
17795;DHT22;9021;50.882;4.326;2022-11-20T03:58:36;6.10;99.90
17795;DHT22;9021;50.882;4.326;2022-11-20T04:01:11;6.10;99.90
17795;DHT22;9021;50.882;4.326;2022-11-20T04:03:38;6.10;99.90
17795;DHT22;9021;50.882;4.326;2022-11-20T04:06:10;6.20;99.90
17795;DHT22;9021;50.882;4.326;2022-11-20T04:08:37;6.30;99.90
17795;DHT22;9021;50.882;4.326;2022-11-20T04:11:13;6.40;99.90
17795;DHT22;9021;50.882;4.326;2022-11-20T04:13:40;6.40;99.90
17795;DHT22;9021;50.882;4.326;2022-11-20T04:16:09;6.50;99.90
17795;DHT22;9021;50.882;4.326;2022-11-20T04:18:35;6.60;99.90
17795;DHT22;9021;50.882;4.326;2022-11-20T04:21:01;6.70;99.90
17795;DHT22;9021;50.882;4.326;2022-11-20T04:23:27;6.70;99.90
17795;DHT22;9021;50.882;4.326;2022-11-20T04:25:53;6.70;99.90
17795;DHT22;9021;50.882;4.326;2022-11-20T04:28:18;6.70;99.90
17795;DHT22;9021;50.882;4.326;2022-11-20T04:30:44;6.50;99.90
17795;DHT22;9021;50.882;4.326;2022-11-20T04:33:10;6.40;99.90
17795;DHT22;9021;50.882;4.326;2022-11-20T04:35:36;6.50;99.90
17795;DHT22;9021;50.882;4.326;2022-11-20T04:38:03;6.60;99.90
17795;DHT22;9021;50.882;4.326;2022-11-20T04:40:29;6.60;99.90
17795;DHT22;9021;50.882;4.326;2022-11-20T04:42:55;6.60;99.90
17795;DHT22;9021;50.882;4.326;2022-11-20T04:45:21;6.50;99.90
17795;DHT22;9021;50.882;4.326;2022-11-20T04:47:47;6.40;99.90
17795;DHT22;9021;50.882;4.326;2022-11-20T04:50:12;6.40;99.90
17795;DHT22;9021;50.882;4.326;2022-11-20T04:52:38;6.60;99.90
17795;DHT22;9021;50.882;4.326;2022-11-20T04:55:04;6.70;99.90
17795;DHT22;9021;50.882;4.326;2022-11-20T04:57:30;6.70;99.90
17795;DHT22;9021;50.882;4.326;2022-11-20T04:59:55;6.50;99.90
17795;DHT22;9021;50.882;4.326;2022-11-20T05:02:21;6.60;99.90
17795;DHT22;9021;50.882;4.326;2022-11-20T05:04:47;6.70;99.90
17795;DHT22;9021;50.882;4.326;2022-11-20T05:07:12;6.80;99.90
17795;DHT22;9021;50.882;4.326;2022-11-20T05:09:38;6.90;99.90
17795;DHT22;9021;50.882;4.326;2022-11-20T05:12:04;7.00;99.90
17795;DHT22;9021;50.882;4.326;2022-11-20T05:14:29;7.00;99.90
17795;DHT22;9021;50.882;4.326;2022-11-20T05:16:55;7.00;99.90
17795;DHT22;9021;50.882;4.326;2022-11-20T05:19:21;6.90;99.90
17795;DHT22;9021;50.882;4.326;2022-11-20T05:21:46;7.10;99.90
17795;DHT22;9021;50.882;4.326;2022-11-20T05:24:12;7.20;99.90
17795;DHT22;9021;50.882;4.326;2022-11-20T05:26:38;7.10;99.90
17795;DHT22;9021;50.882;4.326;2022-11-20T05:29:03;7.10;99.90
17795;DHT22;9021;50.882;4.326;2022-11-20T05:31:29;7.00;99.90
17795;DHT22;9021;50.882;4.326;2022-11-20T05:33:56;7.00;99.90
17795;DHT22;9021;50.882;4.326;2022-11-20T05:36:21;7.00;99.90
17795;DHT22;9021;50.882;4.326;2022-11-20T05:38:47;7.00;99.90
17795;DHT22;9021;50.882;4.326;2022-11-20T05:41:15;7.10;99.90
17795;DHT22;9021;50.882;4.326;2022-11-20T05:43:43;6.90;99.90
17795;DHT22;9021;50.882;4.326;2022-11-20T05:46:10;6.90;99.90
17795;DHT22;9021;50.882;4.326;2022-11-20T05:48:37;7.00;99.90
17795;DHT22;9021;50.882;4.326;2022-11-20T05:51:04;7.00;99.90
17795;DHT22;9021;50.882;4.326;2022-11-20T05:53:32;7.00;99.90
17795;DHT22;9021;50.882;4.326;2022-11-20T05:56:02;7.00;99.90
17795;DHT22;9021;50.882;4.326;2022-11-20T05:58:28;6.90;99.90
17795;DHT22;9021;50.882;4.326;2022-11-20T06:00:54;7.00;99.90
17795;DHT22;9021;50.882;4.326;2022-11-20T06:03:20;6.90;99.90
17795;DHT22;9021;50.882;4.326;2022-11-20T06:05:46;6.80;99.90
17795;DHT22;9021;50.882;4.326;2022-11-20T06:08:11;6.80;99.90
17795;DHT22;9021;50.882;4.326;2022-11-20T06:10:37;6.80;99.90
17795;DHT22;9021;50.882;4.326;2022-11-20T06:13:03;6.80;99.90
17795;DHT22;9021;50.882;4.326;2022-11-20T06:15:28;6.70;99.90
17795;DHT22;9021;50.882;4.326;2022-11-20T06:17:55;6.80;99.90
17795;DHT22;9021;50.882;4.326;2022-11-20T06:20:21;6.90;99.90
17795;DHT22;9021;50.882;4.326;2022-11-20T06:22:47;6.70;99.90
17795;DHT22;9021;50.882;4.326;2022-11-20T06:25:13;6.60;99.90
17795;DHT22;9021;50.882;4.326;2022-11-20T06:27:39;6.60;99.90
17795;DHT22;9021;50.882;4.326;2022-11-20T06:30:05;6.70;99.90
17795;DHT22;9021;50.882;4.326;2022-11-20T06:32:30;6.50;99.90
17795;DHT22;9021;50.882;4.326;2022-11-20T06:34:56;6.50;99.90
17795;DHT22;9021;50.882;4.326;2022-11-20T06:37:22;6.50;99.90
17795;DHT22;9021;50.882;4.326;2022-11-20T06:39:48;6.60;99.90
17795;DHT22;9021;50.882;4.326;2022-11-20T06:42:14;6.50;99.90
17795;DHT22;9021;50.882;4.326;2022-11-20T06:44:39;6.60;99.90
17795;DHT22;9021;50.882;4.326;2022-11-20T06:47:05;6.70;99.90
17795;DHT22;9021;50.882;4.326;2022-11-20T06:49:30;6.80;99.90
17795;DHT22;9021;50.882;4.326;2022-11-20T06:51:56;6.80;99.90
17795;DHT22;9021;50.882;4.326;2022-11-20T06:54:21;6.80;99.90
17795;DHT22;9021;50.882;4.326;2022-11-20T06:56:47;6.90;99.90
17795;DHT22;9021;50.882;4.326;2022-11-20T06:59:13;7.00;99.90
17795;DHT22;9021;50.882;4.326;2022-11-20T07:01:39;7.10;99.90
17795;DHT22;9021;50.882;4.326;2022-11-20T07:04:04;7.20;99.90
17795;DHT22;9021;50.882;4.326;2022-11-20T07:06:32;7.20;99.90
17795;DHT22;9021;50.882;4.326;2022-11-20T07:08:58;7.30;99.90
17795;DHT22;9021;50.882;4.326;2022-11-20T07:11:24;7.00;99.90
17795;DHT22;9021;50.882;4.326;2022-11-20T07:13:49;7.00;99.90
17795;DHT22;9021;50.882;4.326;2022-11-20T07:16:15;6.90;99.90
17795;DHT22;9021;50.882;4.326;2022-11-20T07:18:41;6.90;99.90
17795;DHT22;9021;50.882;4.326;2022-11-20T07:21:08;7.00;99.90
17795;DHT22;9021;50.882;4.326;2022-11-20T07:23:35;7.10;99.90
17795;DHT22;9021;50.882;4.326;2022-11-20T07:26:05;7.10;99.90
17795;DHT22;9021;50.882;4.326;2022-11-20T07:28:31;7.10;99.90
17795;DHT22;9021;50.882;4.326;2022-11-20T07:30:57;7.20;99.90
17795;DHT22;9021;50.882;4.326;2022-11-20T07:33:22;7.10;99.90
17795;DHT22;9021;50.882;4.326;2022-11-20T07:35:48;7.10;99.90
17795;DHT22;9021;50.882;4.326;2022-11-20T07:38:14;7.40;99.90
17795;DHT22;9021;50.882;4.326;2022-11-20T07:40:39;7.50;99.90
17795;DHT22;9021;50.882;4.326;2022-11-20T07:43:05;7.50;99.90
17795;DHT22;9021;50.882;4.326;2022-11-20T07:45:31;7.60;99.90
17795;DHT22;9021;50.882;4.326;2022-11-20T07:47:56;7.60;99.90
17795;DHT22;9021;50.882;4.326;2022-11-20T07:50:22;7.40;99.90
17795;DHT22;9021;50.882;4.326;2022-11-20T07:52:48;7.40;99.90
17795;DHT22;9021;50.882;4.326;2022-11-20T07:55:14;7.50;99.90
17795;DHT22;9021;50.882;4.326;2022-11-20T07:57:40;7.50;99.90
17795;DHT22;9021;50.882;4.326;2022-11-20T08:00:08;7.50;99.90
17795;DHT22;9021;50.882;4.326;2022-11-20T08:02:40;7.30;99.90
17795;DHT22;9021;50.882;4.326;2022-11-20T08:05:08;7.30;99.90
17795;DHT22;9021;50.882;4.326;2022-11-20T08:07:38;7.30;99.90
17795;DHT22;9021;50.882;4.326;2022-11-20T08:10:04;7.40;99.90
17795;DHT22;9021;50.882;4.326;2022-11-20T08:12:30;7.40;99.90
17795;DHT22;9021;50.882;4.326;2022-11-20T08:15:14;7.50;99.90
17795;DHT22;9021;50.882;4.326;2022-11-20T08:17:39;7.50;99.90
17795;DHT22;9021;50.882;4.326;2022-11-20T08:20:05;7.70;99.90
17795;DHT22;9021;50.882;4.326;2022-11-20T08:22:31;7.90;99.90
17795;DHT22;9021;50.882;4.326;2022-11-20T08:24:57;7.90;99.90
17795;DHT22;9021;50.882;4.326;2022-11-20T08:27:23;7.90;99.90
17795;DHT22;9021;50.882;4.326;2022-11-20T08:29:48;8.00;99.90
17795;DHT22;9021;50.882;4.326;2022-11-20T08:32:14;8.00;99.90
17795;DHT22;9021;50.882;4.326;2022-11-20T08:34:39;7.90;99.90
17795;DHT22;9021;50.882;4.326;2022-11-20T08:37:05;7.80;99.90
17795;DHT22;9021;50.882;4.326;2022-11-20T08:39:31;7.90;99.90
17795;DHT22;9021;50.882;4.326;2022-11-20T08:41:56;7.90;99.90
17795;DHT22;9021;50.882;4.326;2022-11-20T08:44:22;8.10;99.90
17795;DHT22;9021;50.882;4.326;2022-11-20T08:46:48;8.10;99.90
17795;DHT22;9021;50.882;4.326;2022-11-20T08:49:14;8.20;99.90
17795;DHT22;9021;50.882;4.326;2022-11-20T08:51:40;8.20;99.90
17795;DHT22;9021;50.882;4.326;2022-11-20T08:54:06;8.10;99.90
17795;DHT22;9021;50.882;4.326;2022-11-20T08:56:33;8.20;99.90
17795;DHT22;9021;50.882;4.326;2022-11-20T08:58:59;8.20;99.90
17795;DHT22;9021;50.882;4.326;2022-11-20T09:01:25;8.10;99.90
17795;DHT22;9021;50.882;4.326;2022-11-20T09:03:51;8.00;99.90
17795;DHT22;9021;50.882;4.326;2022-11-20T09:06:17;8.20;99.90
17795;DHT22;9021;50.882;4.326;2022-11-20T09:08:43;8.30;99.90
17795;DHT22;9021;50.882;4.326;2022-11-20T09:11:09;8.40;99.90
17795;DHT22;9021;50.882;4.326;2022-11-20T09:13:35;8.40;99.90
17795;DHT22;9021;50.882;4.326;2022-11-20T09:16:02;8.20;99.90
17795;DHT22;9021;50.882;4.326;2022-11-20T09:18:29;8.20;99.90
17795;DHT22;9021;50.882;4.326;2022-11-20T09:21:00;8.20;99.90
17795;DHT22;9021;50.882;4.326;2022-11-20T09:23:30;8.20;99.90
17795;DHT22;9021;50.882;4.326;2022-11-20T09:25:56;8.30;99.90
17795;DHT22;9021;50.882;4.326;2022-11-20T09:28:25;8.30;99.90
17795;DHT22;9021;50.882;4.326;2022-11-20T09:30:51;8.40;99.90
17795;DHT22;9021;50.882;4.326;2022-11-20T09:33:17;8.40;99.90
17795;DHT22;9021;50.882;4.326;2022-11-20T09:35:43;8.40;99.90
17795;DHT22;9021;50.882;4.326;2022-11-20T09:38:09;8.50;99.90
17795;DHT22;9021;50.882;4.326;2022-11-20T09:40:38;8.70;99.90
17795;DHT22;9021;50.882;4.326;2022-11-20T09:48:48;9.00;99.90
17795;DHT22;9021;50.882;4.326;2022-11-20T09:54:20;9.10;99.90
17795;DHT22;9021;50.882;4.326;2022-11-20T09:56:53;9.20;99.90
17795;DHT22;9021;50.882;4.326;2022-11-20T09:59:36;9.00;99.90
17795;DHT22;9021;50.882;4.326;2022-11-20T10:07:42;9.20;99.90
17795;DHT22;9021;50.882;4.326;2022-11-20T10:10:49;9.40;99.90
17795;DHT22;9021;50.882;4.326;2022-11-20T10:16:21;9.40;99.90
17795;DHT22;9021;50.882;4.326;2022-11-20T10:30:09;10.10;99.90
17795;DHT22;9021;50.882;4.326;2022-11-20T10:32:41;10.20;99.90
17795;DHT22;9021;50.882;4.326;2022-11-20T10:35:23;10.30;99.90
17795;DHT22;9021;50.882;4.326;2022-11-20T10:37:56;10.20;99.90
17795;DHT22;9021;50.882;4.326;2022-11-20T10:40:33;10.50;99.90
17795;DHT22;9021;50.882;4.326;2022-11-20T10:43:06;10.80;99.90
17795;DHT22;9021;50.882;4.326;2022-11-20T10:45:55;11.10;99.90
17795;DHT22;9021;50.882;4.326;2022-11-20T10:48:24;11.10;99.90
17795;DHT22;9021;50.882;4.326;2022-11-20T10:54:10;10.70;99.90
17795;DHT22;9021;50.882;4.326;2022-11-20T10:56:45;10.50;99.90
17795;DHT22;9021;50.882;4.326;2022-11-20T11:02:19;10.60;99.90
17795;DHT22;9021;50.882;4.326;2022-11-20T11:04:54;10.50;99.90
17795;DHT22;9021;50.882;4.326;2022-11-20T11:07:27;10.60;99.90
17795;DHT22;9021;50.882;4.326;2022-11-20T11:09:55;10.60;99.90
17795;DHT22;9021;50.882;4.326;2022-11-20T11:12:26;10.60;99.90
17795;DHT22;9021;50.882;4.326;2022-11-20T11:14:54;10.50;99.90
17795;DHT22;9021;50.882;4.326;2022-11-20T11:17:29;10.40;99.90
17795;DHT22;9021;50.882;4.326;2022-11-20T11:22:24;10.40;99.90
17795;DHT22;9021;50.882;4.326;2022-11-20T11:24:53;10.30;99.90
17795;DHT22;9021;50.882;4.326;2022-11-20T11:27:19;10.20;99.90
17795;DHT22;9021;50.882;4.326;2022-11-20T11:29:45;10.20;99.90
17795;DHT22;9021;50.882;4.326;2022-11-20T11:32:12;10.20;99.90
17795;DHT22;9021;50.882;4.326;2022-11-20T11:34:38;10.30;99.90
17795;DHT22;9021;50.882;4.326;2022-11-20T11:37:05;10.40;99.90
17795;DHT22;9021;50.882;4.326;2022-11-20T11:39:37;10.40;99.90
17795;DHT22;9021;50.882;4.326;2022-11-20T11:42:10;10.40;99.90
17795;DHT22;9021;50.882;4.326;2022-11-20T11:44:44;10.30;99.90
17795;DHT22;9021;50.882;4.326;2022-11-20T11:47:36;9.90;99.90
17795;DHT22;9021;50.882;4.326;2022-11-20T11:50:17;10.10;99.90
17795;DHT22;9021;50.882;4.326;2022-11-20T11:58:09;10.30;99.90
17795;DHT22;9021;50.882;4.326;2022-11-20T12:00:40;10.20;99.90
17795;DHT22;9021;50.882;4.326;2022-11-20T12:05:48;10.00;99.90
17795;DHT22;9021;50.882;4.326;2022-11-20T12:08:39;10.00;99.90
17795;DHT22;9021;50.882;4.326;2022-11-20T12:11:21;9.80;99.90
17795;DHT22;9021;50.882;4.326;2022-11-20T12:14:09;9.80;99.90
17795;DHT22;9021;50.882;4.326;2022-11-20T12:16:37;9.70;99.90
17795;DHT22;9021;50.882;4.326;2022-11-20T12:19:11;9.80;99.90
17795;DHT22;9021;50.882;4.326;2022-11-20T12:27:39;9.50;99.90
17795;DHT22;9021;50.882;4.326;2022-11-20T12:30:17;9.40;99.90
17795;DHT22;9021;50.882;4.326;2022-11-20T12:33:00;9.40;99.90
17795;DHT22;9021;50.882;4.326;2022-11-20T12:47:49;9.40;99.90
17795;DHT22;9021;50.882;4.326;2022-11-20T12:50:27;9.50;99.90
17795;DHT22;9021;50.882;4.326;2022-11-20T12:52:56;9.50;99.90
17795;DHT22;9021;50.882;4.326;2022-11-20T12:58:24;9.60;99.90
17795;DHT22;9021;50.882;4.326;2022-11-20T13:00:58;9.50;99.90
17795;DHT22;9021;50.882;4.326;2022-11-20T13:03:48;9.40;99.90
17795;DHT22;9021;50.882;4.326;2022-11-20T13:06:19;9.30;99.90
17795;DHT22;9021;50.882;4.326;2022-11-20T13:08:55;9.20;99.90
17795;DHT22;9021;50.882;4.326;2022-11-20T13:19:31;9.40;99.90
17795;DHT22;9021;50.882;4.326;2022-11-20T13:21:57;9.40;99.90
17795;DHT22;9021;50.882;4.326;2022-11-20T13:24:28;9.50;99.90
17795;DHT22;9021;50.882;4.326;2022-11-20T13:29:34;9.30;99.90
17795;DHT22;9021;50.882;4.326;2022-11-20T13:32:17;9.00;99.90
17795;DHT22;9021;50.882;4.326;2022-11-20T13:34:54;9.30;99.90
17795;DHT22;9021;50.882;4.326;2022-11-20T13:37:35;9.20;99.90
17795;DHT22;9021;50.882;4.326;2022-11-20T13:42:37;9.10;99.90
17795;DHT22;9021;50.882;4.326;2022-11-20T13:45:11;9.20;99.90
17795;DHT22;9021;50.882;4.326;2022-11-20T13:47:50;9.30;99.90
17795;DHT22;9021;50.882;4.326;2022-11-20T13:50:16;9.20;99.90
17795;DHT22;9021;50.882;4.326;2022-11-20T13:55:50;9.40;99.90
17795;DHT22;9021;50.882;4.326;2022-11-20T14:01:30;9.40;99.90
17795;DHT22;9021;50.882;4.326;2022-11-20T14:04:06;9.30;99.90
17795;DHT22;9021;50.882;4.326;2022-11-20T14:06:38;9.30;99.90
17795;DHT22;9021;50.882;4.326;2022-11-20T14:09:04;9.20;99.90
17795;DHT22;9021;50.882;4.326;2022-11-20T14:11:30;9.20;99.90
17795;DHT22;9021;50.882;4.326;2022-11-20T14:16:24;9.10;99.90
17795;DHT22;9021;50.882;4.326;2022-11-20T14:18:50;9.20;99.90
17795;DHT22;9021;50.882;4.326;2022-11-20T14:21:28;9.10;99.90
17795;DHT22;9021;50.882;4.326;2022-11-20T14:24:06;9.00;99.90
17795;DHT22;9021;50.882;4.326;2022-11-20T14:26:32;9.10;99.90
17795;DHT22;9021;50.882;4.326;2022-11-20T14:28:58;9.00;99.90
17795;DHT22;9021;50.882;4.326;2022-11-20T14:31:25;9.10;99.90
17795;DHT22;9021;50.882;4.326;2022-11-20T14:33:53;9.20;99.90
17795;DHT22;9021;50.882;4.326;2022-11-20T14:36:22;9.10;99.90
17795;DHT22;9021;50.882;4.326;2022-11-20T14:38:49;9.10;99.90
17795;DHT22;9021;50.882;4.326;2022-11-20T14:41:23;9.30;99.90
17795;DHT22;9021;50.882;4.326;2022-11-20T14:43:59;9.30;99.90
17795;DHT22;9021;50.882;4.326;2022-11-20T14:46:25;9.30;99.90
17795;DHT22;9021;50.882;4.326;2022-11-20T14:48:56;9.30;99.90
17795;DHT22;9021;50.882;4.326;2022-11-20T14:51:32;9.30;99.90
17795;DHT22;9021;50.882;4.326;2022-11-20T14:54:16;9.30;99.90
17795;DHT22;9021;50.882;4.326;2022-11-20T14:57:00;9.40;99.90
17795;DHT22;9021;50.882;4.326;2022-11-20T14:59:29;9.40;99.90
17795;DHT22;9021;50.882;4.326;2022-11-20T15:02:08;9.50;99.90
17795;DHT22;9021;50.882;4.326;2022-11-20T15:04:47;9.50;99.90
17795;DHT22;9021;50.882;4.326;2022-11-20T15:07:24;9.50;99.90
17795;DHT22;9021;50.882;4.326;2022-11-20T15:10:00;9.60;99.90
17795;DHT22;9021;50.882;4.326;2022-11-20T15:12:25;9.60;99.90
17795;DHT22;9021;50.882;4.326;2022-11-20T15:14:51;9.70;99.90
17795;DHT22;9021;50.882;4.326;2022-11-20T15:17:17;9.70;99.90
17795;DHT22;9021;50.882;4.326;2022-11-20T15:19:42;9.80;99.90
17795;DHT22;9021;50.882;4.326;2022-11-20T15:22:12;9.90;99.90
17795;DHT22;9021;50.882;4.326;2022-11-20T15:24:44;10.00;99.90
17795;DHT22;9021;50.882;4.326;2022-11-20T15:27:10;10.00;99.90
17795;DHT22;9021;50.882;4.326;2022-11-20T15:29:36;10.00;99.90
17795;DHT22;9021;50.882;4.326;2022-11-20T15:32:02;10.00;99.90
17795;DHT22;9021;50.882;4.326;2022-11-20T15:34:28;9.90;99.90
17795;DHT22;9021;50.882;4.326;2022-11-20T15:36:54;9.90;99.90
17795;DHT22;9021;50.882;4.326;2022-11-20T15:39:20;10.00;99.90
17795;DHT22;9021;50.882;4.326;2022-11-20T15:41:46;10.10;99.90
17795;DHT22;9021;50.882;4.326;2022-11-20T15:44:11;10.20;99.90
17795;DHT22;9021;50.882;4.326;2022-11-20T15:46:40;10.10;99.90
17795;DHT22;9021;50.882;4.326;2022-11-20T15:49:12;10.20;99.90
17795;DHT22;9021;50.882;4.326;2022-11-20T15:51:41;10.20;99.90
17795;DHT22;9021;50.882;4.326;2022-11-20T15:54:21;10.20;99.90
17795;DHT22;9021;50.882;4.326;2022-11-20T15:56:49;10.20;99.90
17795;DHT22;9021;50.882;4.326;2022-11-20T15:59:15;10.20;99.90
17795;DHT22;9021;50.882;4.326;2022-11-20T16:01:41;10.20;99.90
17795;DHT22;9021;50.882;4.326;2022-11-20T16:04:12;10.30;99.90
17795;DHT22;9021;50.882;4.326;2022-11-20T16:06:38;10.30;99.90
17795;DHT22;9021;50.882;4.326;2022-11-20T16:09:04;10.30;99.90
17795;DHT22;9021;50.882;4.326;2022-11-20T16:11:29;10.30;99.90
17795;DHT22;9021;50.882;4.326;2022-11-20T16:13:55;10.30;99.90
17795;DHT22;9021;50.882;4.326;2022-11-20T16:16:39;10.40;99.90
17795;DHT22;9021;50.882;4.326;2022-11-20T16:19:13;10.40;99.90
17795;DHT22;9021;50.882;4.326;2022-11-20T16:21:39;10.30;99.90
17795;DHT22;9021;50.882;4.326;2022-11-20T16:24:08;10.30;99.90
17795;DHT22;9021;50.882;4.326;2022-11-20T16:26:34;10.20;99.90
17795;DHT22;9021;50.882;4.326;2022-11-20T16:29:01;10.10;99.90
17795;DHT22;9021;50.882;4.326;2022-11-20T16:31:28;10.10;99.90
17795;DHT22;9021;50.882;4.326;2022-11-20T16:33:55;10.10;99.90
17795;DHT22;9021;50.882;4.326;2022-11-20T16:36:23;10.20;99.90
17795;DHT22;9021;50.882;4.326;2022-11-20T16:39:00;10.10;99.90
17795;DHT22;9021;50.882;4.326;2022-11-20T16:41:32;10.10;99.90
17795;DHT22;9021;50.882;4.326;2022-11-20T16:43:59;10.10;99.90
17795;DHT22;9021;50.882;4.326;2022-11-20T16:46:31;10.10;99.90
17795;DHT22;9021;50.882;4.326;2022-11-20T16:49:01;10.10;99.90
17795;DHT22;9021;50.882;4.326;2022-11-20T16:51:29;10.10;99.90
17795;DHT22;9021;50.882;4.326;2022-11-20T16:53:55;10.10;99.90
17795;DHT22;9021;50.882;4.326;2022-11-20T16:56:23;10.10;99.90
17795;DHT22;9021;50.882;4.326;2022-11-20T16:58:50;10.10;99.90
17795;DHT22;9021;50.882;4.326;2022-11-20T17:01:18;10.20;99.90
17795;DHT22;9021;50.882;4.326;2022-11-20T17:03:46;10.20;99.90
17795;DHT22;9021;50.882;4.326;2022-11-20T17:06:19;10.00;99.90
17795;DHT22;9021;50.882;4.326;2022-11-20T17:08:46;10.00;99.90
17795;DHT22;9021;50.882;4.326;2022-11-20T17:11:12;9.60;99.90
17795;DHT22;9021;50.882;4.326;2022-11-20T17:13:38;9.60;99.90
17795;DHT22;9021;50.882;4.326;2022-11-20T17:16:09;9.60;99.90
17795;DHT22;9021;50.882;4.326;2022-11-20T17:18:35;9.70;99.90
17795;DHT22;9021;50.882;4.326;2022-11-20T17:21:02;9.70;99.90
17795;DHT22;9021;50.882;4.326;2022-11-20T17:23:32;9.90;99.90
17795;DHT22;9021;50.882;4.326;2022-11-20T17:26:05;9.90;99.90
17795;DHT22;9021;50.882;4.326;2022-11-20T17:28:31;9.90;99.90
17795;DHT22;9021;50.882;4.326;2022-11-20T17:31:00;10.00;99.90
17795;DHT22;9021;50.882;4.326;2022-11-20T17:33:27;10.10;99.90
17795;DHT22;9021;50.882;4.326;2022-11-20T17:35:53;9.80;99.90
17795;DHT22;9021;50.882;4.326;2022-11-20T17:38:18;9.60;99.90
17795;DHT22;9021;50.882;4.326;2022-11-20T17:40:51;9.40;99.90